Time,TemperatureF,DewpointF,PressureIn,WindDirection,WindDirectionDegrees,WindSpeedMPH,WindSpeedGustMPH,Humidity,HourlyPrecipIn,Conditions,Clouds,dailyrainin,SoftwareType,DateUTC
2013-01-10 00:06:00,75.7,70.0,30.26,SW,219,0.0,-999.0,82,-99.99,,,0.00,weatherlink.com 1.10,2013-01-10 05:06:00,
2013-01-10 00:21:00,75.5,70.0,30.25,ESE,106,0.0,-999.0,82,-99.99,,,0.00,weatherlink.com 1.10,2013-01-10 05:21:00,
2013-01-10 00:51:00,75.6,70.0,30.25,ENE,68,0.0,-999.0,82,-99.99,,,0.00,weatherlink.com 1.10,2013-01-10 05:51:00,
2013-01-10 01:06:00,75.7,70.0,30.25,ESE,113,0.0,-999.0,82,-99.99,,,0.00,weatherlink.com 1.10,2013-01-10 06:06:00,
2013-01-10 01:21:00,75.5,69.0,30.25,SSE,148,0.0,-999.0,81,-99.99,,,0.00,weatherlink.com 1.10,2013-01-10 06:21:00,
2013-01-10 01:36:00,75.3,69.0,30.25,ESE,110,0.0,-999.0,81,-99.99,,,0.00,weatherlink.com 1.10,2013-01-10 06:36:00,
2013-01-10 01:51:00,75.3,69.0,30.24,East,92,0.0,-999.0,80,-99.99,,,0.00,weatherlink.com 1.10,2013-01-10 06:51:00,
2013-01-10 02:06:00,75.2,69.0,30.24,ESE,111,0.0,-999.0,80,-99.99,,,0.00,weatherlink.com 1.10,2013-01-10 07:06:00,
2013-01-10 02:21:00,75.2,68.0,30.24,ESE,110,0.0,-999.0,79,-99.99,,,0.00,weatherlink.com 1.10,2013-01-10 07:21:00,
2013-01-10 02:36:00,75.0,68.0,30.24,ESE,117,0.0,-999.0,80,-99.99,,,0.00,weatherlink.com 1.10,2013-01-10 07:36:00,
2013-01-10 02:51:00,74.9,68.0,30.24,SSE,155,0.0,-999.0,79,-99.99,,,0.00,weatherlink.com 1.10,2013-01-10 07:51:00,
2013-01-10 03:07:00,74.9,68.0,30.24,ESE,103,0.0,-999.0,79,-99.99,,,0.00,weatherlink.com 1.10,2013-01-10 08:07:00,
2013-01-10 03:22:00,75.0,68.0,30.24,East,88,0.0,-999.0,79,-99.99,,,0.00,weatherlink.com 1.10,2013-01-10 08:22:00,
2013-01-10 03:37:00,74.8,68.0,30.24,SSE,156,0.0,-999.0,78,-99.99,,,0.00,weatherlink.com 1.10,2013-01-10 08:37:00,
2013-01-10 03:52:00,74.6,68.0,30.24,SSE,158,0.0,-999.0,79,-99.99,,,0.00,weatherlink.com 1.10,2013-01-10 08:52:00,
2013-01-10 04:07:00,74.6,68.0,30.24,ESE,118,0.0,-999.0,80,-99.99,,,0.00,weatherlink.com 1.10,2013-01-10 09:07:00,
2013-01-10 04:22:00,74.5,68.0,30.24,ESE,121,0.0,-999.0,80,-99.99,,,0.00,weatherlink.com 1.10,2013-01-10 09:22:00,
2013-01-10 04:37:00,74.6,68.0,30.24,ESE,116,0.0,-999.0,79,-99.99,,,0.00,weatherlink.com 1.10,2013-01-10 09:37:00,
2013-01-10 04:52:00,74.4,68.0,30.23,East,86,0.0,-999.0,79,-99.99,,,0.00,weatherlink.com 1.10,2013-01-10 09:52:00,
2013-01-10 05:07:00,74.4,68.0,30.23,South,171,0.0,-999.0,79,-99.99,,,0.00,weatherlink.com 1.10,2013-01-10 10:07:00,
2013-01-10 05:22:00,74.2,67.0,30.23,SE,130,0.0,-999.0,79,-99.99,,,0.00,weatherlink.com 1.10,2013-01-10 10:22:00,
2013-01-10 05:37:00,74.0,67.0,30.23,ESE,108,0.0,-999.0,78,-99.99,,,0.00,weatherlink.com 1.10,2013-01-10 10:37:00,
2013-01-10 05:52:00,73.7,67.0,30.23,SE,141,0.0,-999.0,79,-99.99,,,0.00,weatherlink.com 1.10,2013-01-10 10:52:00,
2013-01-10 06:07:00,73.5,67.0,30.23,ESE,121,0.0,-999.0,81,-99.99,,,0.00,weatherlink.com 1.10,2013-01-10 11:07:00,
2013-01-10 06:22:00,73.5,68.0,30.24,ESE,110,0.0,-999.0,82,-99.99,,,0.00,weatherlink.com 1.10,2013-01-10 11:22:00,
2013-01-10 06:37:00,73.4,68.0,30.24,ESE,115,0.0,-999.0,83,-99.99,,,0.00,weatherlink.com 1.10,2013-01-10 11:37:00,
2013-01-10 06:52:00,73.8,68.0,30.25,SSE,164,0.0,-999.0,81,-99.99,,,0.00,weatherlink.com 1.10,2013-01-10 11:52:00,
2013-01-10 07:07:00,74.1,68.0,30.25,ESE,113,0.0,-999.0,80,-99.99,,,0.00,weatherlink.com 1.10,2013-01-10 12:07:00,
2013-01-10 07:22:00,73.8,67.0,30.25,ESE,109,0.0,-999.0,80,-99.99,,,0.00,weatherlink.com 1.10,2013-01-10 12:22:00,
2013-01-10 07:37:00,73.9,67.0,30.26,SE,126,0.0,-999.0,80,-99.99,,,0.00,weatherlink.com 1.10,2013-01-10 12:37:00,
2013-01-10 07:52:00,74.5,67.0,30.26,South,178,0.0,-999.0,78,-99.99,,,0.00,weatherlink.com 1.10,2013-01-10 12:52:00,
2013-01-10 08:07:00,75.7,68.0,30.27,South,182,0.0,-999.0,77,-99.99,,,0.00,weatherlink.com 1.10,2013-01-10 13:07:00,
2013-01-10 08:22:00,76.4,68.0,30.27,SSE,150,0.0,-999.0,75,-99.99,,,0.00,weatherlink.com 1.10,2013-01-10 13:22:00,
2013-01-10 08:37:00,77.0,69.0,30.28,South,179,0.0,-999.0,75,-99.99,,,0.00,weatherlink.com 1.10,2013-01-10 13:37:00,
2013-01-10 08:52:00,75.8,68.0,30.28,ESE,108,0.0,-999.0,77,-99.99,,,0.00,weatherlink.com 1.10,2013-01-10 13:52:00,
2013-01-10 09:07:00,76.6,68.0,30.28,SSE,159,0.0,-999.0,74,-99.99,,,0.00,weatherlink.com 1.10,2013-01-10 14:07:00,
2013-01-10 09:22:00,77.8,68.0,30.28,SE,134,0.0,-999.0,72,-99.99,,,0.00,weatherlink.com 1.10,2013-01-10 14:22:00,
2013-01-10 09:37:00,78.5,68.0,30.28,SE,135,0.0,-999.0,70,-99.99,,,0.00,weatherlink.com 1.10,2013-01-10 14:37:00,
2013-01-10 09:52:00,78.6,68.0,30.28,ESE,111,0.0,-999.0,69,-99.99,,,0.00,weatherlink.com 1.10,2013-01-10 14:52:00,
2013-01-10 10:07:00,78.8,67.0,30.27,SSW,202,0.0,-999.0,68,-99.99,,,0.00,weatherlink.com 1.10,2013-01-10 15:07:00,
2013-01-10 10:22:00,79.4,68.0,30.26,East,94,0.0,-999.0,68,-99.99,,,0.00,weatherlink.com 1.10,2013-01-10 15:22:00,
2013-01-10 10:37:00,79.4,67.0,30.26,SSE,159,0.0,-999.0,67,-99.99,,,0.00,weatherlink.com 1.10,2013-01-10 15:37:00,
2013-01-10 10:52:00,79.4,68.0,30.26,SSE,159,0.0,-999.0,68,-99.99,,,0.00,weatherlink.com 1.10,2013-01-10 15:52:00,
2013-01-10 11:07:00,79.6,68.0,30.25,SSE,156,0.0,-999.0,68,-99.99,,,0.00,weatherlink.com 1.10,2013-01-10 16:07:00,
2013-01-10 11:22:00,79.9,68.0,30.25,ESE,114,0.0,-999.0,68,-99.99,,,0.00,weatherlink.com 1.10,2013-01-10 16:22:00,
2013-01-10 11:37:00,79.9,68.0,30.24,SE,134,0.0,-999.0,67,-99.99,,,0.00,weatherlink.com 1.10,2013-01-10 16:37:00,
2013-01-10 11:52:00,79.3,67.0,30.23,ESE,111,0.0,-999.0,67,-99.99,,,0.00,weatherlink.com 1.10,2013-01-10 16:52:00,
2013-01-10 12:07:00,79.1,68.0,30.21,SSE,155,0.0,-999.0,68,-99.99,,,0.00,weatherlink.com 1.10,2013-01-10 17:07:00,
2013-01-10 12:22:00,79.2,67.0,30.20,SSW,199,0.0,-999.0,66,-99.99,,,0.00,weatherlink.com 1.10,2013-01-10 17:22:00,
2013-01-10 12:37:00,79.6,67.0,30.20,South,190,0.0,-999.0,65,-99.99,,,0.00,weatherlink.com 1.10,2013-01-10 17:37:00,
2013-01-10 12:52:00,79.1,66.0,30.20,SSE,150,0.0,-999.0,65,-99.99,,,0.00,weatherlink.com 1.10,2013-01-10 17:52:00,
2013-01-10 13:07:00,79.5,65.0,30.18,ENE,63,0.0,-999.0,61,-99.99,,,0.00,weatherlink.com 1.10,2013-01-10 18:07:00,
2013-01-10 13:22:00,79.7,65.0,30.18,SE,144,0.0,-999.0,62,-99.99,,,0.00,weatherlink.com 1.10,2013-01-10 18:22:00,
2013-01-10 13:37:00,79.2,67.0,30.17,East,84,0.0,-999.0,66,-99.99,,,0.00,weatherlink.com 1.10,2013-01-10 18:37:00,
2013-01-10 13:52:00,78.1,66.0,30.17,SSW,213,0.0,-999.0,67,-99.99,,,0.00,weatherlink.com 1.10,2013-01-10 18:52:00,
2013-01-10 14:07:00,78.1,66.0,30.17,SE,126,0.0,-999.0,67,-99.99,,,0.00,weatherlink.com 1.10,2013-01-10 19:07:00,
2013-01-10 14:22:00,79.2,66.0,30.17,SE,132,0.0,-999.0,64,-99.99,,,0.00,weatherlink.com 1.10,2013-01-10 19:22:00,
2013-01-10 14:37:00,78.8,66.0,30.18,ESE,119,0.0,-999.0,65,-99.99,,,0.00,weatherlink.com 1.10,2013-01-10 19:37:00,
2013-01-10 14:52:00,79.3,66.0,30.18,SSE,167,0.0,-999.0,64,-99.99,,,0.00,weatherlink.com 1.10,2013-01-10 19:52:00,
2013-01-10 15:07:00,79.5,67.0,30.19,ESE,122,0.0,-999.0,65,-99.99,,,0.00,weatherlink.com 1.10,2013-01-10 20:07:00,
2013-01-10 15:22:00,79.4,67.0,30.20,East,82,0.0,-999.0,65,-99.99,,,0.00,weatherlink.com 1.10,2013-01-10 20:22:00,
2013-01-10 15:53:00,77.9,67.0,30.21,SE,144,0.0,-999.0,70,-99.99,,,0.00,weatherlink.com 1.10,2013-01-10 20:53:00,
2013-01-10 16:08:00,77.8,66.0,30.22,East,94,0.0,-999.0,67,-99.99,,,0.00,weatherlink.com 1.10,2013-01-10 21:08:00,
2013-01-10 16:23:00,78.0,67.0,30.23,ESE,117,0.0,-999.0,68,-99.99,,,0.00,weatherlink.com 1.10,2013-01-10 21:23:00,
2013-01-10 16:38:00,77.7,67.0,30.23,ENE,57,0.0,-999.0,70,-99.99,,,0.00,weatherlink.com 1.10,2013-01-10 21:38:00,
2013-01-10 16:53:00,77.3,68.0,30.23,ESE,108,0.0,-999.0,72,-99.99,,,0.00,weatherlink.com 1.10,2013-01-10 21:53:00,
2013-01-10 17:08:00,77.2,68.0,30.23,SSW,196,0.0,-999.0,73,-99.99,,,0.00,weatherlink.com 1.10,2013-01-10 22:08:00,
2013-01-10 17:23:00,76.5,67.0,30.24,SE,139,0.0,-999.0,73,-99.99,,,0.00,weatherlink.com 1.10,2013-01-10 22:23:00,
2013-01-10 17:38:00,76.1,68.0,30.24,East,92,0.0,-999.0,75,-99.99,,,0.00,weatherlink.com 1.10,2013-01-10 22:38:00,
2013-01-10 17:53:00,75.8,68.0,30.24,East,97,0.0,-999.0,76,-99.99,,,0.00,weatherlink.com 1.10,2013-01-10 22:53:00,
2013-01-10 18:08:00,75.5,68.0,30.24,SSE,151,0.0,-999.0,77,-99.99,,,0.00,weatherlink.com 1.10,2013-01-10 23:08:00,
2013-01-10 18:23:00,75.4,68.0,30.24,ESE,123,0.0,-999.0,78,-99.99,,,0.00,weatherlink.com 1.10,2013-01-10 23:23:00,
2013-01-10 18:38:00,75.1,68.0,30.24,SE,126,0.0,-999.0,78,-99.99,,,0.00,weatherlink.com 1.10,2013-01-10 23:38:00,
2013-01-10 18:53:00,74.8,68.0,30.24,SE,134,0.0,-999.0,79,-99.99,,,0.00,weatherlink.com 1.10,2013-01-10 23:53:00,
2013-01-10 19:08:00,74.4,67.0,30.24,East,98,0.0,-999.0,78,-99.99,,,0.00,weatherlink.com 1.10,2013-01-11 00:08:00,
2013-01-10 19:23:00,74.4,67.0,30.24,ESE,123,0.0,-999.0,78,-99.99,,,0.00,weatherlink.com 1.10,2013-01-11 00:23:00,
2013-01-10 19:38:00,74.2,67.0,30.24,South,180,0.0,-999.0,78,-99.99,,,0.00,weatherlink.com 1.10,2013-01-11 00:38:00,
2013-01-10 19:53:00,74.0,67.0,30.24,East,84,0.0,-999.0,78,-99.99,,,0.00,weatherlink.com 1.10,2013-01-11 00:53:00,
2013-01-10 20:08:00,73.9,67.0,30.24,SE,133,0.0,-999.0,78,-99.99,,,0.00,weatherlink.com 1.10,2013-01-11 01:08:00,
2013-01-10 20:23:00,74.0,66.0,30.24,East,93,0.0,-999.0,77,-99.99,,,0.00,weatherlink.com 1.10,2013-01-11 01:23:00,
2013-01-10 20:38:00,74.3,67.0,30.24,SE,136,0.0,-999.0,78,-99.99,,,0.00,weatherlink.com 1.10,2013-01-11 01:38:00,
2013-01-10 20:53:00,74.2,67.0,30.24,ESE,120,0.0,-999.0,78,-99.99,,,0.00,weatherlink.com 1.10,2013-01-11 01:53:00,
2013-01-10 21:08:00,74.1,67.0,30.24,SE,134,0.0,-999.0,78,-99.99,,,0.00,weatherlink.com 1.10,2013-01-11 02:08:00,
2013-01-10 21:23:00,74.0,67.0,30.24,East,99,0.0,-999.0,78,-99.99,,,0.00,weatherlink.com 1.10,2013-01-11 02:23:00,
2013-01-10 21:38:00,74.2,67.0,30.24,ESE,103,0.0,-999.0,77,-99.99,,,0.00,weatherlink.com 1.10,2013-01-11 02:38:00,
2013-01-10 21:53:00,74.2,67.0,30.24,ESE,117,0.0,-999.0,78,-99.99,,,0.00,weatherlink.com 1.10,2013-01-11 02:53:00,
2013-01-10 22:08:00,74.3,67.0,30.24,SE,134,0.0,-999.0,78,-99.99,,,0.00,weatherlink.com 1.10,2013-01-11 03:08:00,
2013-01-10 22:23:00,74.5,67.0,30.24,ESE,115,0.0,-999.0,77,-99.99,,,0.00,weatherlink.com 1.10,2013-01-11 03:23:00,
2013-01-10 22:38:00,74.5,67.0,30.24,ESE,115,0.0,-999.0,78,-99.99,,,0.00,weatherlink.com 1.10,2013-01-11 03:38:00,
2013-01-10 22:53:00,74.7,68.0,30.25,ESE,106,0.0,-999.0,80,-99.99,,,0.00,weatherlink.com 1.10,2013-01-11 03:53:00,
2013-01-10 23:08:00,74.9,69.0,30.25,SE,143,0.0,-999.0,81,-99.99,,,0.00,weatherlink.com 1.10,2013-01-11 04:08:00,
2013-01-10 23:38:00,74.9,69.0,30.24,South,173,0.0,-999.0,82,-99.99,,,0.00,weatherlink.com 1.10,2013-01-11 04:38:00,
2013-01-10 23:53:00,75.3,69.0,30.24,SE,140,0.0,-999.0,81,-99.99,,,0.00,weatherlink.com 1.10,2013-01-11 04:53:00,